METAR Data
IDs: Format: Raw Decoded Include TAF

Data at: 0952 UTC 18 Jan 2022

KWVI 180901Z AUTO 35004KT 10SM SCT007 OVC090 10/09 A3009 RMK AO2 T01000089
KWVI 180853Z AUTO 35003KT 10SM BKN007 OVC090 10/09 A3009 RMK AO2 CIG 005V008 SLP188 T01000094 53001
KWVI 180816Z AUTO 00000KT 7SM BKN006 BKN090 10/10 A3008 RMK AO2 T01000100
KWVI 180807Z AUTO 00000KT 7SM SCT006 BKN090 10/09 A3008 RMK AO2 T01000094
KWVI 180753Z AUTO 30004KT 6SM BR FEW090 10/09 A3008 RMK AO2 SLP186 T01000094 401670067
KWVI 180704Z AUTO 00000KT 10SM FEW005 OVC090 12/10 A3008 RMK AO2 T01170100
KWVI 180653Z AUTO 35003KT 10SM BKN005 OVC090 12/10 A3008 RMK AO2 SLP187 T01170100
KWVI 180605Z AUTO 00000KT 10SM OVC005 12/10 A3008 RMK AO2 T01220100
KWVI 180553Z AUTO 03003KT 10SM OVC004 12/10 A3008 RMK AO2 SLP187 T01170100 10133 20094 53009
KWVI 180529Z AUTO 05003KT 9SM BKN004 OVC075 12/11 A3008 RMK AO2 T01170106
KWVI 180520Z AUTO 10003KT 9SM SCT004 OVC075 12/11 A3008 RMK AO2 T01220106
KWVI 180453Z AUTO 00000KT 10SM OVC075 11/10 A3008 RMK AO2 SLP184 T01110100
KWVI 180353Z AUTO 00000KT 10SM OVC080 12/10 A3007 RMK AO2 SLP180 T01220100
KWVI 180253Z AUTO 00000KT 9SM CLR 12/11 A3006 RMK AO2 SLP178 T01170106 53008
KWVI 180153Z AUTO 00000KT 10SM CLR 12/10 A3004 RMK AO2 SLP172 T01220100
KWVI 180053Z AUTO 00000KT 10SM FEW120 13/11 A3003 RMK AO2 SLP167 T01330106
KWVI 172353Z AUTO 24006KT 10SM SCT095 13/10 A3003 RMK AO2 SLP170 60001 T01280100 10167 20117 56010
KWVI 172253Z AUTO 30003KT 10SM FEW065 BKN090 OVC110 16/10 A3004 RMK AO2 RAB30E47 SLP171 P0000 T01610100
KWVI 172153Z AUTO 26005KT 10SM SCT080 OVC100 15/08 A3003 RMK AO2 SLP169 T01500078
KWVI 172053Z AUTO 19003KT 10SM SCT080 OVC100 15/09 A3006 RMK AO2 RAE26 SLP180 P0000 60001 T01500094 55006
KWVI 171953Z AUTO 20004KT 10SM -RA OVC075 15/10 A3006 RMK AO2 SLP179 P0001 T01500100
KWVI 171853Z AUTO VRB03KT 10SM -RA BKN070 OVC085 13/09 A3008 RMK AO2 RAB41 SLP185 P0000 T01280089
KWVI 171753Z AUTO 00000KT 10SM FEW070 OVC090 12/08 A3008 RMK AO2 SLP187 T01170083 10117 20067 53014
KWVI 171653Z AUTO 00000KT 10SM FEW070 OVC090 11/08 A3006 RMK AO2 SLP179 T01060078
KWVI 171553Z AUTO 09004KT 10SM BKN070 OVC080 10/07 A3005 RMK AO2 SLP176 T01000067
KWVI 171453Z AUTO 34005KT 10SM BKN065 08/06 A3004 RMK AO2 SLP172 T00830056 53003
KWVI 171353Z AUTO 00000KT 10SM SCT070 07/05 A3003 RMK AO2 SLP170 T00670050
KWVI 171253Z AUTO 34004KT 10SM CLR 08/06 A3003 RMK AO2 SLP169 T00830056
KWVI 171153Z AUTO 35003KT 10SM OVC100 08/06 A3003 RMK AO2 SLP169 T00830061 10128 20072 56011
KWVI 171053Z AUTO 34003KT 10SM FEW090 09/06 A3004 RMK AO2 SLP172 T00890061
KWVI 170953Z AUTO 33003KT 10SM FEW065 10/07 A3005 RMK AO2 SLP175 T01000072
No TAF found for KWVI

KSNS 180927Z AUTO 36004KT 8SM FEW006 BKN012 OVC095 13/11 A3009 RMK AO2 T01330111 TSNO
KSNS 180853Z AUTO 33003KT 8SM OVC006 13/11 A3008 RMK AO2 SLP195 T01330111 53004 TSNO
KSNS 180833Z AUTO 32003KT 10SM BKN008 OVC095 13/10 A3008 RMK AO2 T01330100 TSNO
KSNS 180823Z AUTO 30003KT 10SM SCT008 OVC090 13/10 A3008 RMK AO2 T01330100 TSNO
KSNS 180753Z AUTO 00000KT 10SM OVC095 13/10 A3007 RMK AO2 SLP192 T01330100 401780094 TSNO
KSNS 180653Z AUTO 00000KT 10SM OVC080 13/10 A3007 RMK AO2 SLP192 T01330100 TSNO
KSNS 180553Z AUTO 01006KT 10SM BKN080 OVC100 14/11 A3007 RMK AO2 SLP191 T01390106 10172 20139 50006 TSNO
KSNS 180453Z AUTO 35005KT 10SM BKN060 OVC075 14/11 A3007 RMK AO2 SLP193 T01390106 TSNO
KSNS 180353Z AUTO 35004KT 10SM OVC065 14/11 A3006 RMK AO2 SLP189 T01440106 TSNO
KSNS 180253Z AUTO 33008KT 10SM BKN060 14/10 A3005 RMK AO2 SLP185 T01440100 53010 TSNO
KSNS 180153Z 33006KT 10SM CLR 16/10 A3002 RMK AO2 SLP175 T01560100
KSNS 180053Z 33005KT 10SM CLR 17/08 A3001 RMK AO2 SLP172 T01720083
KSNS 172353Z 33005KT 10SM FEW090 17/09 A3002 RMK AO2 SLP174 60000 T01720094 10178 20128 56011
KSNS 172253Z 00000KT 10SM FEW110 18/09 A3003 RMK AO2 RAE21 SLP177 P0000 T01780089
KSNS 172153Z 00000KT 10SM -RA FEW055 OVC085 17/10 A3002 RMK AO2 RAB49 SLP173 P0000 T01670100
KSNS 172053Z 12005KT 10SM OVC070 17/09 A3005 RMK AO2 SLP186 T01670094 58005
KSNS 171953Z 13007KT 10SM BKN060 OVC075 16/09 A3005 RMK AO2 SLP186 T01560089
KSNS 171853Z 12009KT 10SM FEW065 OVC100 15/08 A3007 RMK AO2 SLP191 T01500083
KSNS 171753Z 13010KT 10SM OVC100 13/08 A3007 RMK AO2 SLP190 T01280078 10133 20094 53010
KSNS 171653Z 13009KT 10SM OVC100 12/08 A3005 RMK AO2 SLP186 T01220083
KSNS 171553Z 12005KT 10SM BKN095 11/08 A3004 RMK AO2 SLP182 T01060078
KSNS 171453Z 12005KT 10SM OVC090 11/08 A3004 RMK AO2 SLP180 T01060078 53003
KSNS 171353Z AUTO 13008KT 10SM FEW080 10/07 A3002 RMK AO2 SLP175 T01000072 TSNO
KSNS 171253Z AUTO 15004KT 10SM CLR 11/08 A3002 RMK AO2 SLP175 T01060078 TSNO
KSNS 171153Z AUTO 15003KT 10SM SCT070 11/08 A3003 RMK AO2 SLP177 60000 T01060078 10144 20100 56011 TSNO
KSNS 171053Z AUTO 00000KT 8SM BKN100 10/08 A3003 RMK AO2 SLP179 T01000083 TSNO
KSNS 170953Z AUTO 24003KT 10SM SCT070 BKN100 12/09 A3004 RMK AO2 SLP182 T01220089 TSNO

KSNS 180902Z 1809/1906 VRB03KT P6SM FEW006 BKN080 BKN100
  TEMPO 1809/1812 6SM BR BKN006
  FM181200 12006KT P6SM SCT080 BKN100
  FM181700 27004KT P6SM SCT015 OVC100
  FM182000 29007KT P6SM FEW200
  FM190400 VRB03KT P6SM FEW015


KMRY 180854Z AUTO 25004KT 10SM BKN008 OVC090 13/11 A3009 RMK AO2 SLP200 T01330111 51003
KMRY 180831Z AUTO 00000KT 10SM FEW008 BKN095 OVC120 13/10 A3008 RMK AO2 T01280100
KMRY 180754Z AUTO 00000KT 6SM BR SCT070 OVC095 13/11 A3008 RMK AO2 SLP198 T01280106 401830106
KMRY 180654Z AUTO 28005KT 10SM OVC085 13/10 A3009 RMK AO2 SLP199 T01330100
KMRY 180554Z AUTO 00000KT 10SM FEW065 BKN080 14/10 A3008 RMK AO2 SLP196 T01390100 10167 20133 51006
KMRY 180454Z AUTO 13003KT 10SM OVC070 13/10 A3008 RMK AO2 SLP196 T01330100
KMRY 180354Z 00000KT 10SM OVC065 14/10 A3007 RMK AO2 SLP194 T01390100
KMRY 180254Z 27003KT 10SM SCT120 14/08 A3006 RMK AO2 SLP191 T01440083 53010
KMRY 180154Z 25003KT 10SM BKN100 OVC120 15/08 A3004 RMK AO2 SLP183 T01500078
KMRY 180054Z 00000KT 10SM FEW120 17/07 A3002 RMK AO2 SLP178 T01670067
KMRY 172354Z 24006KT 10SM CLR 17/07 A3003 RMK AO2 SLP181 60000 T01670067 10183 20150 56010
KMRY 172254Z 22007KT 10SM FEW090 18/07 A3004 RMK AO2 SLP183 T01780067
KMRY 172154Z 24008KT 10SM FEW055 FEW090 18/10 A3002 RMK AO2 SLP178 T01780100
KMRY 172054Z 33005KT 9SM SCT055 BKN070 BKN090 18/10 A3006 RMK AO2 SLP191 60000 T01830100 58002
KMRY 171954Z 32003KT 10SM FEW036 OVC065 16/09 A3006 RMK AO2 RAB08E20 SLP192 P0000 T01610094
KMRY 171854Z 30004KT 10SM BKN060 BKN070 BKN090 16/08 A3007 RMK AO2 SLP195 T01610078
KMRY 171754Z 00000KT 10SM FEW075 OVC095 16/07 A3007 RMK AO2 SLP193 T01610072 10161 20106 53012
KMRY 171654Z 00000KT 10SM BKN055 BKN070 14/06 A3005 RMK AO2 SLP188 T01390061
KMRY 171554Z 07003KT 10SM OVC090 12/06 A3004 RMK AO2 SLP184 T01220056
KMRY 171454Z 00000KT 10SM OVC080 11/06 A3003 RMK AO2 SLP180 T01110056 53001
KMRY 171354Z 00000KT 10SM CLR 11/06 A3002 RMK AO2 SLP178 T01110056
KMRY 171254Z AUTO 11005KT 10SM BKN060 OVC070 12/06 A3002 RMK AO2 SLP178 T01170056
KMRY 171154Z AUTO 09003KT 10SM FEW060 BKN090 12/06 A3003 RMK AO2 SLP179 T01170056 10144 20111 56012
KMRY 171054Z AUTO 00000KT 10SM OVC100 12/06 A3004 RMK AO2 SLP182 T01220056
KMRY 170954Z AUTO 09005KT 10SM OVC075 12/06 A3005 RMK AO2 SLP185 T01170056

KMRY 180901Z 1809/1906 VRB04KT P6SM BKN008
  FM181900 30004KT P6SM SCT015
  FM190200 VRB03KT P6SM SCT012


KSJC 180853Z AUTO 00000KT 10SM CLR 09/06 A3008 RMK AO2 SLP185 T00940061 53002
KSJC 180753Z 00000KT 8SM FEW110 09/06 A3008 RMK AO2 SLP184 LAST T00940061 401780056
KSJC 180653Z 00000KT 8SM BKN110 11/07 A3007 RMK AO2 SLP182 T01110067
KSJC 180553Z 00000KT 8SM BKN100 12/07 A3007 RMK AO2 SLP183 T01220072 10172 20111 53008
KSJC 180453Z 00000KT 9SM BKN100 12/07 A3007 RMK AO2 SLP180 T01220072
KSJC 180353Z 00000KT 8SM FEW075 SCT100 12/07 A3006 RMK AO2 SLP177 T01170067
KSJC 180253Z 29003KT 8SM SCT075 BKN100 12/07 A3005 RMK AO2 SLP175 T01220072 53013
KSJC 180153Z 32006KT 8SM SCT075 BKN100 12/08 A3003 RMK AO2 SLP170 T01170078
KSJC 180053Z 33008KT 8SM FEW075 SCT100 BKN160 15/08 A3001 RMK AO2 SLP163 T01500078
KSJC 172353Z 34003KT 8SM FEW075 SCT100 BKN160 17/06 A3001 RMK AO2 SLP162 T01720061 10178 20117 56018
KSJC 172253Z 19003KT 7SM SCT075 BKN100 BKN160 17/08 A3002 RMK AO2 SLP165 T01720078
KSJC 172153Z 00000KT 7SM SCT075 BKN100 17/08 A3002 RMK AO2 SLP165 T01670078
KSJC 172053Z 00000KT 6SM HZ FEW011 SCT070 BKN100 15/08 A3006 RMK AO2 SLP180 T01500083 58009
KSJC 171953Z 20003KT 6SM HZ FEW011 SCT070 BKN100 14/09 A3007 RMK AO2 SLP181 T01440089
KSJC 171853Z 00000KT 6SM HZ FEW010 SCT075 BKN100 13/08 A3009 RMK AO2 SLP189 T01280083
KSJC 171753Z 00000KT 8SM FEW010 SCT060 BKN085 12/08 A3009 RMK AO2 SLP188 T01170078 10117 20056 52012
KSJC 171653Z 00000KT 10SM FEW010 BKN080 BKN120 11/08 A3008 RMK AO2 SLP185 T01110083
KSJC 171553Z 00000KT 10SM SCT075 SCT150 SCT200 08/05 A3007 RMK AO2 SLP181 T00780050
KSJC 171453Z 14004KT 9SM SCT075 07/05 A3006 RMK AO2 SLP177 T00670050 53007
KSJC 171353Z 00000KT 10SM SCT070 08/06 A3004 RMK AO2 SLP172 T00830056
KSJC 171253Z AUTO 00000KT 9SM BKN070 08/06 A3004 RMK AO2 SLP171 T00830061
KSJC 171153Z AUTO 00000KT 9SM FEW080 10/07 A3004 RMK AO2 SLP170 T01000067 10128 20094 58009
KSJC 171053Z AUTO 00000KT 9SM OVC070 10/07 A3005 RMK AO2 SLP174 T01000072
KSJC 170953Z AUTO 21004KT 9SM BKN075 10/07 A3005 RMK AO2 SLP176 T01000072

KSJC 180540Z 1806/1906 00000KT P6SM BKN100
  FM181500 VRB03KT P6SM SCT010 SCT200
  FM182100 30005KT P6SM FEW100 FEW200
  FM190300 VRB03KT P6SM FEW200


KSFO 180856Z 28010KT 10SM FEW009 FEW120 SCT200 11/08 A3008 RMK AO2 SLP187 T01060083 53004
KSFO 180756Z 30013KT 10SM FEW009 FEW140 SCT200 11/09 A3008 RMK AO2 SLP184 T01060089 401500089
KSFO 180656Z 29013KT 10SM FEW009 SCT140 BKN200 11/09 A3008 RMK AO2 SLP185 T01110089
KSFO 180556Z 31008KT 10SM FEW080 SCT100 12/08 A3007 RMK AO2 SLP183 T01170083 10150 20111 52008
KSFO 180456Z 28006KT 10SM FEW080 SCT100 11/07 A3007 RMK AO2 SLP181 T01110067
KSFO 180356Z 29008KT 10SM FEW080 SCT100 12/06 A3005 RMK AO2 SLP176 T01220061
KSFO 180256Z 31009KT 10SM FEW080 SCT100 13/06 A3005 RMK AO2 SLP174 T01330061 53008
KSFO 180156Z 30007KT 10SM FEW080 BKN200 13/06 A3003 RMK AO2 SLP169 T01330061
KSFO 180056Z 29008KT 10SM FEW100 SCT200 14/06 A3003 RMK AO2 SLP167 T01440061
KSFO 172356Z 02004KT 10SM FEW100 SCT200 14/07 A3002 RMK AO2 SLP167 T01440072 10144 20117 55014
KSFO 172256Z 03004KT 10SM FEW090 SCT200 14/09 A3002 RMK AO2 SLP165 T01390089
KSFO 172156Z 02004KT 9SM FEW090 BKN200 14/09 A3002 RMK AO2 SLP167 T01390089
KSFO 172056Z 02004KT 9SM SCT090 BKN200 14/09 A3007 RMK AO2 SLP181 T01390094 58008
KSFO 171956Z 06003KT 9SM FEW110 BKN200 13/08 A3007 RMK AO2 SLP182 T01280083
KSFO 171856Z 01004KT 9SM SCT110 BKN200 12/08 A3009 RMK AO2 SLP189 T01170083
KSFO 171756Z 04003KT 9SM BKN110 12/09 A3009 RMK AO2 SLP189 T01170089 10117 20089 51011
KSFO 171656Z 04003KT 9SM BKN100 12/08 A3008 RMK AO2 SLP187 T01170083
KSFO 171556Z 03007KT 9SM BKN100 11/08 A3007 RMK AO2 SLP182 T01110083
KSFO 171456Z 00000KT 8SM OVC100 11/08 A3006 RMK AO2 SLP179 T01060078 53007
KSFO 171356Z 00000KT 10SM FEW080 BKN100 09/08 A3004 RMK AO2 SLP172 T00940078
KSFO 171256Z 00000KT 9SM BKN080 09/07 A3003 RMK AO2 SLP170 T00940072
KSFO 171156Z 17003KT 9SM SCT080 10/08 A3004 RMK AO2 SLP172 T01000083 10117 20100 58007
KSFO 171056Z 00000KT 8SM FEW070 BKN080 11/08 A3005 RMK AO2 SLP175 T01060083
KSFO 170956Z 00000KT 8SM FEW070 BKN090 BKN100 11/08 A3006 RMK AO2 SLP177 T01060083

KSFO 180901Z 1809/1912 28009KT P6SM FEW009 FEW120
  FM181600 VRB03KT P6SM SCT008 SCT100
  FM182100 30008KT P6SM FEW010 FEW200
  FM190400 30005KT P6SM FEW008


KHAF 180935Z AUTO 00000KT 8SM CLR 07/07 A3010 RMK AO2
KHAF 180915Z AUTO 05004KT 9SM BKN010 07/07 A3010 RMK AO2
KHAF 180855Z AUTO 06004KT 8SM OVC010 08/08 A3009 RMK AO2
KHAF 180835Z AUTO VRB03KT 7SM OVC009 10/10 A3009 RMK AO2
KHAF 180815Z AUTO 34004KT 6SM BR OVC009 10/10 A3009 RMK AO2
KHAF 180755Z AUTO 35004KT 8SM BKN009 08/08 A3009 RMK AO2
KHAF 180735Z AUTO 00000KT 7SM BKN010 08/08 A3008 RMK AO2
KHAF 180715Z AUTO 00000KT 8SM OVC010 09/09 A3008 RMK AO2
KHAF 180655Z AUTO 34005KT 7SM OVC008 10/10 A3009 RMK AO2
KHAF 180635Z AUTO 00000KT 7SM SCT008 08/08 A3009 RMK AO2
KHAF 180615Z AUTO 00000KT 7SM SCT003 SCT120 08/08 A3009 RMK AO2
KHAF 180555Z AUTO 00000KT 6SM BR SCT120 09/09 A3008 RMK AO2
KHAF 180535Z AUTO 00000KT 6SM BR CLR 09/09 A3009 RMK AO2
KHAF 180515Z AUTO 00000KT 6SM BR CLR 08/08 A3009 RMK AO2
KHAF 180455Z AUTO 04003KT 7SM SCT003 SCT100 09/09 A3008 RMK AO2
KHAF 180435Z AUTO 00000KT 7SM BKN003 OVC100 10/10 A3007 RMK AO2
KHAF 180415Z AUTO 00000KT 6SM BR BKN003 OVC090 10/10 A3007 RMK AO2
KHAF 180355Z AUTO 00000KT 7SM OVC090 11/10 A3006 RMK AO2
KHAF 180335Z AUTO 00000KT 6SM BR FEW003 OVC095 11/10 A3006 RMK AO2
KHAF 180315Z AUTO 00000KT 7SM FEW003 OVC100 11/10 A3005 RMK AO2
KHAF 180255Z AUTO 00000KT 7SM OVC100 10/09 A3006 RMK AO2
KHAF 180235Z AUTO 00000KT 8SM FEW080 OVC100 11/10 A3005 RMK AO2
KHAF 180215Z AUTO 00000KT 6SM BR FEW019 BKN080 OVC095 11/10 A3005 RMK AO2
KHAF 180155Z AUTO 00000KT 8SM 11/10 A3004 RMK AO2
KHAF 180135Z AUTO 00000KT 11/10 A3004 RMK AO2
KHAF 180115Z AUTO 00000KT 8SM CLR 12/09 A3004 RMK AO2
KHAF 180055Z AUTO 00000KT 7SM CLR 13/09 A3004 RMK AO2
KHAF 180035Z AUTO 00000KT 8SM CLR 14/09 A3003 RMK AO2
KHAF 180015Z AUTO 32005KT 8SM CLR 14/09 A3004 RMK AO2
KHAF 172355Z AUTO 31005KT 8SM CLR 14/10 A3004 RMK AO2
KHAF 172335Z AUTO 30005KT 7SM CLR 15/11 A3003 RMK AO2
KHAF 172315Z AUTO 00000KT 9SM CLR 15/10 A3003 RMK AO2
KHAF 172255Z AUTO 16003KT 8SM CLR 15/11 A3003 RMK AO2
KHAF 172235Z AUTO 16004KT 6SM HZ CLR 14/11 A3003 RMK AO2
KHAF 172215Z AUTO 00000KT 5SM HZ CLR 15/09 A3003 RMK AO2
KHAF 172155Z AUTO 26004KT 7SM FEW085 16/08 A3002 RMK AO2
KHAF 172135Z AUTO 00000KT 7SM OVC080 16/09 A3003 RMK AO2
KHAF 172115Z AUTO 27003KT 6SM HZ BKN080 BKN090 15/09 A3003 RMK AO2
KHAF 172055Z AUTO 00000KT 5SM HZ BKN085 15/10 A3006 RMK AO2
KHAF 172035Z AUTO 23003KT 6SM HZ BKN080 15/10 A3005 RMK AO2
KHAF 172015Z AUTO 16005KT 5SM HZ BKN080 BKN120 15/10 A3006 RMK AO2
KHAF 171955Z AUTO 16005KT 5SM HZ FEW075 BKN120 15/11 A3006 RMK AO2
KHAF 171935Z AUTO 00000KT 7SM CLR 16/09 A3008 RMK AO2
KHAF 171915Z AUTO 26004KT 7SM FEW110 15/11 A3008 RMK AO2
KHAF 171855Z AUTO 7SM FEW110 RMK AO2 PNO PWINO
KHAF 171835Z AUTO 00000KT 8SM FEW110 14/09 A3008 RMK AO2
KHAF 171815Z AUTO 00000KT 7SM SCT120 13/10 A3008 RMK AO2
KHAF 171755Z AUTO 25003KT 5SM HZ SCT110 14/09 A3008 RMK AO2
KHAF 171735Z AUTO 00000KT 5SM HZ BKN110 13/10 A3007 RMK AO2
KHAF 171715Z AUTO 00000KT 5SM HZ SCT090 SCT120 13/10 A3007 RMK AO2
KHAF 171655Z AUTO 00000KT 5SM BR BKN090 OVC110 12/11 A3006 RMK AO2
KHAF 171635Z AUTO 00000KT 6SM BR BKN090 OVC110 12/10 A3006 RMK AO2
KHAF 171615Z AUTO 00000KT 7SM OVC080 11/09 A3005 RMK AO2
KHAF 171555Z AUTO 00000KT 3SM BR OVC080 11/09 A3005 RMK AO2
KHAF 171535Z AUTO 00000KT 2 1/2SM BR FEW002 OVC075 12/10 A3004 RMK AO2
KHAF 171515Z AUTO 32005KT 4SM HZ SCT002 BKN075 OVC100 11/08 A3004 RMK AO2
KHAF 171455Z AUTO 32003KT 9SM SCT075 OVC100 10/08 A3004 RMK AO2
KHAF 171435Z AUTO 00000KT 9SM OVC100 11/07 A3003 RMK AO2
KHAF 171415Z AUTO 02005KT 10SM OVC095 10/07 A3002 RMK AO2
KHAF 171355Z AUTO 00000KT 10SM FEW003 OVC080 09/08 A3002 RMK AO2
KHAF 171335Z AUTO 00000KT 10SM BKN003 OVC080 09/07 A3001 RMK AO2
KHAF 171315Z AUTO 00000KT 10SM OVC080 09/07 A3002 RMK AO2
KHAF 171255Z AUTO 00000KT 10SM BKN075 09/07 A3001 RMK AO2
KHAF 171235Z AUTO 05004KT 10SM BKN080 09/08 A3002 RMK AO2
KHAF 171215Z AUTO 00000KT 9SM OVC080 09/08 A3002 RMK AO2
KHAF 171155Z AUTO 00000KT 10SM OVC080 09/08 A3002 RMK AO2
KHAF 171135Z AUTO 00000KT 9SM OVC080 10/08 A3003 RMK AO2
KHAF 171115Z AUTO 00000KT 10SM OVC080 10/07 A3003 RMK AO2
KHAF 171055Z AUTO 00000KT 10SM OVC080 10/08 A3004 RMK AO2
KHAF 171035Z AUTO 00000KT 10SM OVC080 10/08 A3004 RMK AO2
KHAF 171015Z AUTO 00000KT 9SM OVC075 10/08 A3004 RMK AO2
KHAF 170955Z AUTO 00000KT 9SM BKN080 OVC085 11/08 A3004 RMK AO2
No TAF found for KHAF